WetterOnline ( https://www.wetteronline.de )

Wetter aktuell Bonn

Aktuelles Wetter: Königswinter-Heiderhof (147m)

6-stündlich | Neueste Meldungen
Ortszeit Temperatur Wetter
So, 09.05. 20:00 24.8° C wolkig
So, 09.05. 14:00 25.1° C bewölkt
So, 09.05. 8:00 14.4° C wolkig
So, 09.05. 2:00 11.7° C bewölkt
Sa, 08.05. 20:00 16.8° C bedeckt
Sa, 08.05. 14:00 14.1° C bewölkt
Sa, 08.05. 8:00 8.3° C wolkig
Sa, 08.05. 2:00 4.4° C wolkenlos
Ortszeit Temperatur Wetter
Mo, 10.05. 1:30 19.9° C bedeckt
Mo, 10.05. 1:20 19.9° C bedeckt
Mo, 10.05. 1:10 20.6° C bedeckt
Mo, 10.05. 1:00 20.7° C bedeckt
Mo, 10.05. 0:50 20.7° C bedeckt
Mo, 10.05. 0:40 21.2° C bedeckt
Mo, 10.05. 0:30 21.7° C bedeckt
Mo, 10.05. 0:00 22.1° C bedeckt
So, 09.05. 22:00 22.9° C bedeckt
Ortszeit Relative Feuchte Sichtweite
So, 09.05. 20:00 28% >70 km
So, 09.05. 14:00 44% 50 km
So, 09.05. 8:00 65% 60 km
So, 09.05. 2:00 72% >70 km
Sa, 08.05. 20:00 54% >70 km
Sa, 08.05. 14:00 45% >70 km
Sa, 08.05. 8:00 64% 50 km
Sa, 08.05. 2:00 70% 50 km
Ortszeit Relative Feuchte Sichtweite
Mo, 10.05. 1:30 48% 60 km
Mo, 10.05. 1:20 48% -
Mo, 10.05. 1:10 46% -
Mo, 10.05. 1:00 46% 55 km
Mo, 10.05. 0:50 46% -
Mo, 10.05. 0:40 44% -
Mo, 10.05. 0:30 42% >70 km
Mo, 10.05. 0:00 41% 65 km
So, 09.05. 22:00 37% 60 km
Ortszeit Niederschlagsmenge Niederschlagsart
So, 09.05. 20:00 0.0 l/m2 in 12 Std. -
So, 09.05. 14:00 0.0 l/m2 in 6 Std. -
So, 09.05. 8:00 0.0 l/m2 in 12 Std. -
So, 09.05. 2:00 0.0 l/m2 in 6 Std. -
Sa, 08.05. 20:00 0.1 l/m2 in 12 Std. Regen
Sa, 08.05. 14:00 0.1 l/m2 in 6 Std. Regen
Sa, 08.05. 8:00 0.0 l/m2 in 12 Std. -
Sa, 08.05. 2:00 0.0 l/m2 in 6 Std. -
Ortszeit Niederschlagsmenge Niederschlagsart
Mo, 10.05. 1:30 0.0 l/m2 in 1 Std. -
Mo, 10.05. 1:20 keine Meldung -
Mo, 10.05. 1:10 keine Meldung -
Mo, 10.05. 1:00 0.0 l/m2 in 1 Std. -
Mo, 10.05. 0:50 keine Meldung -
Mo, 10.05. 0:40 keine Meldung -
Mo, 10.05. 0:30 0.0 l/m2 in 1 Std. -
Mo, 10.05. 0:00 0.0 l/m2 in 1 Std. -
So, 09.05. 22:00 keine Meldung -
Ortszeit Stärke Spitze Richtung
km/h Bft. km/h Grad Sektor
So, 09.05. 20:00 22 4 58 190° S
So, 09.05. 14:00 29 5 58 170° S
So, 09.05. 8:00 6 1 19 130° SO
So, 09.05. 2:00 6 1 24 80° O
Sa, 08.05. 20:00 13 3 39 180° S
Sa, 08.05. 14:00 17 3 41 180° S
Sa, 08.05. 8:00 7 2 18 180° S
Sa, 08.05. 2:00 11 2 18 210° SW
Ortszeit Stärke Spitze Richtung
km/h Bft. km/h Grad Sektor
Mo, 10.05. 1:30 9 2 17 160° S
Mo, 10.05. 1:20 9 2 - 160° S
Mo, 10.05. 1:10 9 2 - 170° S
Mo, 10.05. 1:00 11 2 32 160° S
Mo, 10.05. 0:50 11 2 - 160° S
Mo, 10.05. 0:40 11 2 - 160° S
Mo, 10.05. 0:30 15 3 31 170° S
Mo, 10.05. 0:00 18 3 32 170° S
So, 09.05. 22:00 25 4 47 180° S
Ortszeit Untergrenze Bedeckung Gattung
total tief tief mittel hoch
So, 09.05. 20:00 7500 m 8/8 0/8 - - -
So, 09.05. 14:00 6600 m 8/8 5/8 - - -
So, 09.05. 8:00 6600 m 8/8 1/8 - - -
So, 09.05. 2:00 6600 m 8/8 4/8 - - -
Sa, 08.05. 20:00 1500 m 8/8 8/8 - - -
Sa, 08.05. 14:00 1110 m 8/8 7/8 - - -
Sa, 08.05. 8:00 4200 m 6/8 6/8 - - -
Sa, 08.05. 2:00 - 0/8 0/8 - - -
Ortszeit Bedeckungsgrad in Achtel und Wolkenuntergrenze
Mo, 10.05. 1:30 1(3600m) 8(5400m) 8(6600m)
Mo, 10.05. 1:20 1(3600m) 8(5400m) 8(6600m)
Mo, 10.05. 1:10 1(3600m) 8(4500m) 8(5700m)
Mo, 10.05. 1:00 8(4500m) 8(5400m) 8(6600m)
Mo, 10.05. 0:50 8(4500m) 8(5400m)
Mo, 10.05. 0:40 8(4500m) 8(5100m)
Mo, 10.05. 0:30 8(4500m)
Mo, 10.05. 0:00 8(4500m)
So, 09.05. 22:00 6(5100m) 8(5700m)
Ortszeit Luftdruck NN (hPa) Tendenz (hPa in 3 Std.)
So, 09.05. 20:00 1001 - 0,7
So, 09.05. 14:00 1003 - 2,0
So, 09.05. 8:00 1007 - 0,7
So, 09.05. 2:00 1010 - 1,0
Sa, 08.05. 20:00 1011 - 1,3
Sa, 08.05. 14:00 1015 - 2,1
Sa, 08.05. 8:00 1018 - 0,5
Sa, 08.05. 2:00 1020 + 0,3
Ortszeit Luftdruck NN (hPa) Tendenz (hPa in 3 Std.)
Mo, 10.05. 1:30 1003 + 0,3
Mo, 10.05. 1:20 1003 keine Meldung
Mo, 10.05. 1:10 1003 keine Meldung
Mo, 10.05. 1:00 1003 + 0,5
Mo, 10.05. 0:50 1003 keine Meldung
Mo, 10.05. 0:40 1003 keine Meldung
Mo, 10.05. 0:30 1003 + 0,8
Mo, 10.05. 0:00 1002 + 0,7
So, 09.05. 22:00 1002 + 0,4
Ortszeit Schneehöhe (cm)
So, 09.05. 20:00 0
So, 09.05. 14:00 0
So, 09.05. 8:00 0
So, 09.05. 2:00 0
Sa, 08.05. 20:00 0
Sa, 08.05. 14:00 0
Sa, 08.05. 8:00 0
Sa, 08.05. 2:00 0
Ortszeit Schneehöhe (cm)
Mo, 10.05. 1:30 0
Mo, 10.05. 1:20 0
Mo, 10.05. 1:10 0
Mo, 10.05. 1:00 0
Mo, 10.05. 0:50 0
Mo, 10.05. 0:40 0
Mo, 10.05. 0:30 0
Mo, 10.05. 0:00 0
So, 09.05. 22:00 -
Link zu dieser Seite / Seite empfehlen

Das Wetter in ...